sensor_id;sensor_type;location;lat;lon;timestamp;P1;durP1;ratioP1;P2;durP2;ratioP2
3293;SDS011;1659;51.470;6.770;2022-12-11T00:02:26;70.40;;;25.93;;
3293;SDS011;1659;51.470;6.770;2022-12-11T00:04:53;82.53;;;28.50;;
3293;SDS011;1659;51.470;6.770;2022-12-11T00:07:20;88.63;;;28.07;;
3293;SDS011;1659;51.470;6.770;2022-12-11T00:09:46;81.13;;;25.00;;
3293;SDS011;1659;51.470;6.770;2022-12-11T00:12:13;84.97;;;27.70;;
3293;SDS011;1659;51.470;6.770;2022-12-11T00:14:40;92.70;;;27.87;;
3293;SDS011;1659;51.470;6.770;2022-12-11T00:17:08;87.50;;;24.97;;
3293;SDS011;1659;51.470;6.770;2022-12-11T00:19:34;83.53;;;27.57;;
3293;SDS011;1659;51.470;6.770;2022-12-11T00:22:01;72.43;;;26.20;;
3293;SDS011;1659;51.470;6.770;2022-12-11T00:24:27;85.53;;;27.60;;
3293;SDS011;1659;51.470;6.770;2022-12-11T00:26:54;67.43;;;25.33;;
3293;SDS011;1659;51.470;6.770;2022-12-11T00:29:20;88.60;;;24.93;;
3293;SDS011;1659;51.470;6.770;2022-12-11T00:31:47;65.30;;;24.77;;
3293;SDS011;1659;51.470;6.770;2022-12-11T00:34:15;67.07;;;24.80;;
3293;SDS011;1659;51.470;6.770;2022-12-11T00:36:41;65.87;;;24.27;;
3293;SDS011;1659;51.470;6.770;2022-12-11T00:39:08;61.47;;;22.13;;
3293;SDS011;1659;51.470;6.770;2022-12-11T00:41:34;66.50;;;24.43;;
3293;SDS011;1659;51.470;6.770;2022-12-11T00:44:01;73.80;;;23.10;;
3293;SDS011;1659;51.470;6.770;2022-12-11T00:46:28;85.07;;;23.33;;
3293;SDS011;1659;51.470;6.770;2022-12-11T00:48:55;76.00;;;23.80;;
3293;SDS011;1659;51.470;6.770;2022-12-11T00:51:23;57.77;;;22.27;;
3293;SDS011;1659;51.470;6.770;2022-12-11T00:53:49;71.73;;;24.90;;
3293;SDS011;1659;51.470;6.770;2022-12-11T00:56:17;74.97;;;25.67;;
3293;SDS011;1659;51.470;6.770;2022-12-11T00:58:47;66.83;;;24.07;;
3293;SDS011;1659;51.470;6.770;2022-12-11T01:01:14;67.30;;;22.47;;
3293;SDS011;1659;51.470;6.770;2022-12-11T01:03:43;64.53;;;23.77;;
3293;SDS011;1659;51.470;6.770;2022-12-11T01:06:12;72.63;;;23.27;;
3293;SDS011;1659;51.470;6.770;2022-12-11T01:08:41;72.10;;;26.13;;
3293;SDS011;1659;51.470;6.770;2022-12-11T01:11:09;73.23;;;26.10;;
3293;SDS011;1659;51.470;6.770;2022-12-11T01:13:37;60.57;;;22.73;;
3293;SDS011;1659;51.470;6.770;2022-12-11T01:16:05;68.20;;;22.43;;
3293;SDS011;1659;51.470;6.770;2022-12-11T01:18:33;73.33;;;24.30;;
3293;SDS011;1659;51.470;6.770;2022-12-11T01:21:03;69.47;;;25.83;;
3293;SDS011;1659;51.470;6.770;2022-12-11T01:23:31;67.00;;;22.30;;
3293;SDS011;1659;51.470;6.770;2022-12-11T01:26:04;65.27;;;24.50;;
3293;SDS011;1659;51.470;6.770;2022-12-11T01:28:31;58.83;;;22.00;;
3293;SDS011;1659;51.470;6.770;2022-12-11T01:30:58;58.23;;;23.33;;
3293;SDS011;1659;51.470;6.770;2022-12-11T01:33:24;53.80;;;23.67;;
3293;SDS011;1659;51.470;6.770;2022-12-11T01:35:51;59.20;;;20.20;;
3293;SDS011;1659;51.470;6.770;2022-12-11T01:38:18;54.03;;;20.87;;
3293;SDS011;1659;51.470;6.770;2022-12-11T01:40:45;55.70;;;21.90;;
3293;SDS011;1659;51.470;6.770;2022-12-11T01:43:13;67.83;;;22.30;;
3293;SDS011;1659;51.470;6.770;2022-12-11T01:45:40;72.60;;;24.80;;
3293;SDS011;1659;51.470;6.770;2022-12-11T01:48:09;59.23;;;22.80;;
3293;SDS011;1659;51.470;6.770;2022-12-11T01:50:38;77.57;;;24.83;;
3293;SDS011;1659;51.470;6.770;2022-12-11T01:53:09;65.33;;;22.03;;
3293;SDS011;1659;51.470;6.770;2022-12-11T01:55:40;63.57;;;23.27;;
3293;SDS011;1659;51.470;6.770;2022-12-11T01:58:07;67.73;;;24.50;;
3293;SDS011;1659;51.470;6.770;2022-12-11T02:00:36;63.23;;;21.77;;
3293;SDS011;1659;51.470;6.770;2022-12-11T02:03:03;69.77;;;23.27;;
3293;SDS011;1659;51.470;6.770;2022-12-11T02:05:30;71.03;;;23.60;;
3293;SDS011;1659;51.470;6.770;2022-12-11T02:07:57;75.30;;;25.60;;
3293;SDS011;1659;51.470;6.770;2022-12-11T02:10:27;63.90;;;23.53;;
3293;SDS011;1659;51.470;6.770;2022-12-11T02:13:06;59.60;;;23.67;;
3293;SDS011;1659;51.470;6.770;2022-12-11T02:15:41;57.83;;;22.77;;
3293;SDS011;1659;51.470;6.770;2022-12-11T02:18:14;60.40;;;22.17;;
3293;SDS011;1659;51.470;6.770;2022-12-11T02:20:53;66.17;;;22.90;;
3293;SDS011;1659;51.470;6.770;2022-12-11T02:23:31;58.43;;;22.50;;
3293;SDS011;1659;51.470;6.770;2022-12-11T02:26:11;72.27;;;24.40;;
3293;SDS011;1659;51.470;6.770;2022-12-11T02:28:52;66.40;;;23.00;;
3293;SDS011;1659;51.470;6.770;2022-12-11T02:31:20;67.13;;;23.73;;
3293;SDS011;1659;51.470;6.770;2022-12-11T02:33:54;71.23;;;25.00;;
3293;SDS011;1659;51.470;6.770;2022-12-11T02:36:30;62.47;;;23.17;;
3293;SDS011;1659;51.470;6.770;2022-12-11T02:39:00;66.57;;;22.70;;
3293;SDS011;1659;51.470;6.770;2022-12-11T02:41:29;67.07;;;22.93;;
3293;SDS011;1659;51.470;6.770;2022-12-11T02:44:00;75.03;;;25.57;;
3293;SDS011;1659;51.470;6.770;2022-12-11T02:46:28;70.27;;;24.00;;
3293;SDS011;1659;51.470;6.770;2022-12-11T02:48:57;67.03;;;24.90;;
3293;SDS011;1659;51.470;6.770;2022-12-11T02:51:26;68.13;;;24.93;;
3293;SDS011;1659;51.470;6.770;2022-12-11T02:53:55;86.50;;;25.80;;
3293;SDS011;1659;51.470;6.770;2022-12-11T02:56:26;83.93;;;27.07;;
3293;SDS011;1659;51.470;6.770;2022-12-11T02:58:58;84.00;;;24.77;;
3293;SDS011;1659;51.470;6.770;2022-12-11T03:01:29;76.67;;;28.33;;
3293;SDS011;1659;51.470;6.770;2022-12-11T03:03:56;77.90;;;27.50;;
3293;SDS011;1659;51.470;6.770;2022-12-11T03:06:26;83.20;;;25.57;;
3293;SDS011;1659;51.470;6.770;2022-12-11T03:08:58;76.63;;;25.10;;
3293;SDS011;1659;51.470;6.770;2022-12-11T03:11:24;74.37;;;25.70;;
3293;SDS011;1659;51.470;6.770;2022-12-11T03:13:51;65.63;;;25.33;;
3293;SDS011;1659;51.470;6.770;2022-12-11T03:16:21;60.90;;;23.80;;
3293;SDS011;1659;51.470;6.770;2022-12-11T03:18:56;84.67;;;27.77;;
3293;SDS011;1659;51.470;6.770;2022-12-11T03:21:27;74.43;;;25.77;;
3293;SDS011;1659;51.470;6.770;2022-12-11T03:24:00;79.23;;;25.37;;
3293;SDS011;1659;51.470;6.770;2022-12-11T03:26:31;62.87;;;24.60;;
3293;SDS011;1659;51.470;6.770;2022-12-11T03:29:06;75.80;;;25.20;;
3293;SDS011;1659;51.470;6.770;2022-12-11T03:31:40;62.23;;;24.60;;
3293;SDS011;1659;51.470;6.770;2022-12-11T03:34:09;70.93;;;25.30;;
3293;SDS011;1659;51.470;6.770;2022-12-11T03:36:41;95.87;;;28.73;;
3293;SDS011;1659;51.470;6.770;2022-12-11T03:39:09;81.37;;;24.77;;
3293;SDS011;1659;51.470;6.770;2022-12-11T03:41:41;69.27;;;25.53;;
3293;SDS011;1659;51.470;6.770;2022-12-11T03:44:10;75.27;;;25.23;;
3293;SDS011;1659;51.470;6.770;2022-12-11T03:46:38;64.20;;;24.07;;
3293;SDS011;1659;51.470;6.770;2022-12-11T03:49:09;73.20;;;25.43;;
3293;SDS011;1659;51.470;6.770;2022-12-11T03:51:41;68.77;;;26.40;;
3293;SDS011;1659;51.470;6.770;2022-12-11T03:54:10;87.43;;;27.50;;
3293;SDS011;1659;51.470;6.770;2022-12-11T03:56:37;84.87;;;27.30;;
3293;SDS011;1659;51.470;6.770;2022-12-11T03:59:06;78.13;;;25.67;;
3293;SDS011;1659;51.470;6.770;2022-12-11T04:01:33;75.93;;;26.97;;
3293;SDS011;1659;51.470;6.770;2022-12-11T04:04:01;84.03;;;26.17;;
3293;SDS011;1659;51.470;6.770;2022-12-11T04:06:27;75.83;;;24.97;;
3293;SDS011;1659;51.470;6.770;2022-12-11T04:08:54;92.13;;;27.77;;
3293;SDS011;1659;51.470;6.770;2022-12-11T04:11:20;70.70;;;26.00;;
3293;SDS011;1659;51.470;6.770;2022-12-11T04:14:04;85.23;;;29.47;;
3293;SDS011;1659;51.470;6.770;2022-12-11T04:16:50;68.90;;;26.03;;
3293;SDS011;1659;51.470;6.770;2022-12-11T04:19:19;73.93;;;27.93;;
3293;SDS011;1659;51.470;6.770;2022-12-11T04:22:04;71.67;;;24.23;;
3293;SDS011;1659;51.470;6.770;2022-12-11T04:24:49;73.70;;;27.43;;
3293;SDS011;1659;51.470;6.770;2022-12-11T04:27:16;70.13;;;26.90;;
3293;SDS011;1659;51.470;6.770;2022-12-11T04:30:05;72.23;;;24.97;;
3293;SDS011;1659;51.470;6.770;2022-12-11T04:32:34;69.90;;;24.93;;
3293;SDS011;1659;51.470;6.770;2022-12-11T04:35:02;66.70;;;25.60;;
3293;SDS011;1659;51.470;6.770;2022-12-11T04:37:29;69.87;;;24.97;;
3293;SDS011;1659;51.470;6.770;2022-12-11T04:39:55;65.73;;;23.30;;
3293;SDS011;1659;51.470;6.770;2022-12-11T04:42:22;65.67;;;24.53;;
3293;SDS011;1659;51.470;6.770;2022-12-11T04:44:48;60.53;;;23.50;;
3293;SDS011;1659;51.470;6.770;2022-12-11T04:47:15;63.80;;;24.57;;
3293;SDS011;1659;51.470;6.770;2022-12-11T04:49:41;67.43;;;25.17;;
3293;SDS011;1659;51.470;6.770;2022-12-11T04:52:09;68.83;;;25.40;;
3293;SDS011;1659;51.470;6.770;2022-12-11T04:54:36;64.07;;;24.97;;
3293;SDS011;1659;51.470;6.770;2022-12-11T04:57:03;54.07;;;22.87;;
3293;SDS011;1659;51.470;6.770;2022-12-11T04:59:30;59.13;;;22.97;;
3293;SDS011;1659;51.470;6.770;2022-12-11T05:01:57;57.40;;;23.00;;
3293;SDS011;1659;51.470;6.770;2022-12-11T05:04:23;62.90;;;24.90;;
3293;SDS011;1659;51.470;6.770;2022-12-11T05:06:50;63.57;;;23.47;;
3293;SDS011;1659;51.470;6.770;2022-12-11T05:09:18;60.23;;;24.60;;
3293;SDS011;1659;51.470;6.770;2022-12-11T05:11:45;59.93;;;23.27;;
3293;SDS011;1659;51.470;6.770;2022-12-11T05:14:12;65.63;;;24.77;;
3293;SDS011;1659;51.470;6.770;2022-12-11T05:16:38;73.20;;;26.43;;
3293;SDS011;1659;51.470;6.770;2022-12-11T05:19:05;62.57;;;22.30;;
3293;SDS011;1659;51.470;6.770;2022-12-11T05:21:31;69.57;;;26.43;;
3293;SDS011;1659;51.470;6.770;2022-12-11T05:23:58;70.83;;;24.10;;
3293;SDS011;1659;51.470;6.770;2022-12-11T05:26:26;55.40;;;23.20;;
3293;SDS011;1659;51.470;6.770;2022-12-11T05:28:53;59.47;;;24.13;;
3293;SDS011;1659;51.470;6.770;2022-12-11T05:31:20;59.87;;;23.50;;
3293;SDS011;1659;51.470;6.770;2022-12-11T05:33:48;58.43;;;23.80;;
3293;SDS011;1659;51.470;6.770;2022-12-11T05:36:16;55.80;;;24.60;;
3293;SDS011;1659;51.470;6.770;2022-12-11T05:38:45;74.73;;;25.20;;
3293;SDS011;1659;51.470;6.770;2022-12-11T05:41:13;62.30;;;22.77;;
3293;SDS011;1659;51.470;6.770;2022-12-11T05:43:42;76.57;;;26.40;;
3293;SDS011;1659;51.470;6.770;2022-12-11T05:46:09;83.00;;;29.60;;
3293;SDS011;1659;51.470;6.770;2022-12-11T05:48:38;72.60;;;25.20;;
3293;SDS011;1659;51.470;6.770;2022-12-11T05:51:05;66.60;;;24.07;;
3293;SDS011;1659;51.470;6.770;2022-12-11T05:53:32;67.67;;;25.47;;
3293;SDS011;1659;51.470;6.770;2022-12-11T05:56:00;71.07;;;24.70;;
3293;SDS011;1659;51.470;6.770;2022-12-11T05:58:27;64.77;;;24.77;;
3293;SDS011;1659;51.470;6.770;2022-12-11T06:00:55;67.10;;;24.93;;
3293;SDS011;1659;51.470;6.770;2022-12-11T06:03:22;74.10;;;27.20;;
3293;SDS011;1659;51.470;6.770;2022-12-11T06:05:48;66.40;;;25.07;;
3293;SDS011;1659;51.470;6.770;2022-12-11T06:08:15;63.83;;;25.63;;
3293;SDS011;1659;51.470;6.770;2022-12-11T06:10:43;70.30;;;25.77;;
3293;SDS011;1659;51.470;6.770;2022-12-11T06:13:10;60.53;;;24.30;;
3293;SDS011;1659;51.470;6.770;2022-12-11T06:15:37;88.83;;;28.47;;
3293;SDS011;1659;51.470;6.770;2022-12-11T06:18:05;63.07;;;27.00;;
3293;SDS011;1659;51.470;6.770;2022-12-11T06:20:32;61.53;;;25.60;;
3293;SDS011;1659;51.470;6.770;2022-12-11T06:22:59;61.80;;;25.67;;
3293;SDS011;1659;51.470;6.770;2022-12-11T06:25:26;60.70;;;26.57;;
3293;SDS011;1659;51.470;6.770;2022-12-11T06:27:53;69.30;;;24.30;;
3293;SDS011;1659;51.470;6.770;2022-12-11T06:30:19;70.70;;;26.30;;
3293;SDS011;1659;51.470;6.770;2022-12-11T06:32:46;66.43;;;23.00;;
3293;SDS011;1659;51.470;6.770;2022-12-11T06:35:14;66.23;;;24.83;;
3293;SDS011;1659;51.470;6.770;2022-12-11T06:37:41;67.70;;;25.67;;
3293;SDS011;1659;51.470;6.770;2022-12-11T06:40:08;68.77;;;27.17;;
3293;SDS011;1659;51.470;6.770;2022-12-11T06:42:36;72.53;;;27.60;;
3293;SDS011;1659;51.470;6.770;2022-12-11T06:45:03;64.00;;;24.50;;
3293;SDS011;1659;51.470;6.770;2022-12-11T06:47:30;65.90;;;26.90;;
3293;SDS011;1659;51.470;6.770;2022-12-11T06:49:57;61.40;;;24.40;;
3293;SDS011;1659;51.470;6.770;2022-12-11T06:52:25;60.40;;;24.20;;
3293;SDS011;1659;51.470;6.770;2022-12-11T06:54:52;75.53;;;26.57;;
3293;SDS011;1659;51.470;6.770;2022-12-11T06:57:19;56.93;;;25.17;;
3293;SDS011;1659;51.470;6.770;2022-12-11T06:59:46;57.63;;;25.93;;
3293;SDS011;1659;51.470;6.770;2022-12-11T07:02:13;67.70;;;25.60;;
3293;SDS011;1659;51.470;6.770;2022-12-11T07:04:40;77.20;;;26.13;;
3293;SDS011;1659;51.470;6.770;2022-12-11T07:07:08;69.03;;;27.80;;
3293;SDS011;1659;51.470;6.770;2022-12-11T07:09:36;66.40;;;26.10;;
3293;SDS011;1659;51.470;6.770;2022-12-11T07:12:04;78.87;;;26.70;;
3293;SDS011;1659;51.470;6.770;2022-12-11T07:14:32;58.60;;;24.30;;
3293;SDS011;1659;51.470;6.770;2022-12-11T07:16:58;69.93;;;26.47;;
3293;SDS011;1659;51.470;6.770;2022-12-11T07:19:26;63.60;;;26.03;;
3293;SDS011;1659;51.470;6.770;2022-12-11T07:21:52;59.00;;;23.80;;
3293;SDS011;1659;51.470;6.770;2022-12-11T07:24:19;73.17;;;23.80;;
3293;SDS011;1659;51.470;6.770;2022-12-11T07:26:47;58.33;;;22.30;;
3293;SDS011;1659;51.470;6.770;2022-12-11T07:29:13;80.70;;;26.50;;
3293;SDS011;1659;51.470;6.770;2022-12-11T07:31:40;65.03;;;24.43;;
3293;SDS011;1659;51.470;6.770;2022-12-11T07:34:07;65.33;;;25.83;;
3293;SDS011;1659;51.470;6.770;2022-12-11T07:36:33;70.20;;;27.50;;
3293;SDS011;1659;51.470;6.770;2022-12-11T07:39:00;69.17;;;26.17;;
3293;SDS011;1659;51.470;6.770;2022-12-11T07:41:27;62.70;;;24.20;;
3293;SDS011;1659;51.470;6.770;2022-12-11T07:43:57;71.60;;;25.67;;
3293;SDS011;1659;51.470;6.770;2022-12-11T07:46:25;63.97;;;24.80;;
3293;SDS011;1659;51.470;6.770;2022-12-11T07:48:53;60.80;;;25.20;;
3293;SDS011;1659;51.470;6.770;2022-12-11T07:51:21;78.50;;;28.30;;
3293;SDS011;1659;51.470;6.770;2022-12-11T07:53:50;67.97;;;24.50;;
3293;SDS011;1659;51.470;6.770;2022-12-11T07:56:17;64.10;;;25.60;;
3293;SDS011;1659;51.470;6.770;2022-12-11T07:58:44;77.57;;;25.93;;
3293;SDS011;1659;51.470;6.770;2022-12-11T08:01:13;65.10;;;24.80;;
3293;SDS011;1659;51.470;6.770;2022-12-11T08:03:41;71.33;;;26.00;;
3293;SDS011;1659;51.470;6.770;2022-12-11T08:06:08;63.33;;;24.33;;
3293;SDS011;1659;51.470;6.770;2022-12-11T08:08:35;61.37;;;24.97;;
3293;SDS011;1659;51.470;6.770;2022-12-11T08:11:02;65.50;;;24.20;;
3293;SDS011;1659;51.470;6.770;2022-12-11T08:13:29;63.83;;;24.27;;
3293;SDS011;1659;51.470;6.770;2022-12-11T08:15:56;63.80;;;25.37;;
3293;SDS011;1659;51.470;6.770;2022-12-11T08:18:24;51.37;;;18.47;;
3293;SDS011;1659;51.470;6.770;2022-12-11T08:20:51;40.70;;;17.20;;
3293;SDS011;1659;51.470;6.770;2022-12-11T08:23:17;41.63;;;17.23;;
3293;SDS011;1659;51.470;6.770;2022-12-11T08:25:44;46.73;;;18.87;;
3293;SDS011;1659;51.470;6.770;2022-12-11T08:28:10;56.67;;;21.27;;
3293;SDS011;1659;51.470;6.770;2022-12-11T08:30:37;51.70;;;20.30;;
3293;SDS011;1659;51.470;6.770;2022-12-11T08:33:04;47.57;;;18.77;;
3293;SDS011;1659;51.470;6.770;2022-12-11T08:35:32;50.13;;;18.73;;
3293;SDS011;1659;51.470;6.770;2022-12-11T08:37:58;49.53;;;18.67;;
3293;SDS011;1659;51.470;6.770;2022-12-11T08:40:25;42.30;;;19.37;;
3293;SDS011;1659;51.470;6.770;2022-12-11T08:42:51;48.67;;;20.00;;
3293;SDS011;1659;51.470;6.770;2022-12-11T08:45:18;50.37;;;20.40;;
3293;SDS011;1659;51.470;6.770;2022-12-11T08:47:44;51.70;;;19.57;;
3293;SDS011;1659;51.470;6.770;2022-12-11T08:50:11;57.73;;;20.27;;
3293;SDS011;1659;51.470;6.770;2022-12-11T08:52:39;47.60;;;20.57;;
3293;SDS011;1659;51.470;6.770;2022-12-11T08:55:05;44.93;;;18.87;;
3293;SDS011;1659;51.470;6.770;2022-12-11T08:57:33;47.00;;;19.57;;
3293;SDS011;1659;51.470;6.770;2022-12-11T08:59:59;41.60;;;18.80;;
3293;SDS011;1659;51.470;6.770;2022-12-11T09:02:26;50.33;;;19.23;;
3293;SDS011;1659;51.470;6.770;2022-12-11T09:04:52;46.67;;;19.13;;
3293;SDS011;1659;51.470;6.770;2022-12-11T09:07:19;43.20;;;17.80;;
3293;SDS011;1659;51.470;6.770;2022-12-11T09:09:47;48.70;;;19.73;;
3293;SDS011;1659;51.470;6.770;2022-12-11T09:12:13;46.33;;;19.67;;
3293;SDS011;1659;51.470;6.770;2022-12-11T09:14:40;43.47;;;19.33;;
3293;SDS011;1659;51.470;6.770;2022-12-11T09:17:06;40.67;;;17.40;;
3293;SDS011;1659;51.470;6.770;2022-12-11T09:19:33;49.47;;;18.80;;
3293;SDS011;1659;51.470;6.770;2022-12-11T09:21:59;39.17;;;18.27;;
3293;SDS011;1659;51.470;6.770;2022-12-11T09:24:26;49.57;;;19.73;;
3293;SDS011;1659;51.470;6.770;2022-12-11T09:26:54;49.97;;;17.50;;
3293;SDS011;1659;51.470;6.770;2022-12-11T09:29:20;48.53;;;20.30;;
3293;SDS011;1659;51.470;6.770;2022-12-11T09:31:47;47.97;;;20.10;;
3293;SDS011;1659;51.470;6.770;2022-12-11T09:34:14;44.43;;;18.23;;
3293;SDS011;1659;51.470;6.770;2022-12-11T09:36:40;40.07;;;17.87;;
3293;SDS011;1659;51.470;6.770;2022-12-11T09:39:09;39.63;;;17.53;;
3293;SDS011;1659;51.470;6.770;2022-12-11T09:41:37;45.13;;;18.27;;
3293;SDS011;1659;51.470;6.770;2022-12-11T09:44:18;45.47;;;19.13;;
3293;SDS011;1659;51.470;6.770;2022-12-11T09:46:49;40.90;;;18.33;;
3293;SDS011;1659;51.470;6.770;2022-12-11T09:49:22;42.60;;;17.93;;
3293;SDS011;1659;51.470;6.770;2022-12-11T09:51:57;44.30;;;19.23;;
3293;SDS011;1659;51.470;6.770;2022-12-11T09:54:28;52.73;;;18.63;;
3293;SDS011;1659;51.470;6.770;2022-12-11T09:56:57;44.27;;;18.80;;
3293;SDS011;1659;51.470;6.770;2022-12-11T09:59:36;47.37;;;19.47;;
3293;SDS011;1659;51.470;6.770;2022-12-11T10:02:15;44.83;;;19.00;;
3293;SDS011;1659;51.470;6.770;2022-12-11T10:04:53;42.77;;;19.90;;
3293;SDS011;1659;51.470;6.770;2022-12-11T10:07:31;38.00;;;17.90;;
3293;SDS011;1659;51.470;6.770;2022-12-11T10:10:05;40.90;;;16.70;;
3293;SDS011;1659;51.470;6.770;2022-12-11T10:12:41;39.57;;;18.37;;
3293;SDS011;1659;51.470;6.770;2022-12-11T10:15:15;45.90;;;18.13;;
3293;SDS011;1659;51.470;6.770;2022-12-11T10:17:52;40.47;;;17.00;;
3293;SDS011;1659;51.470;6.770;2022-12-11T10:20:23;40.73;;;17.40;;
3293;SDS011;1659;51.470;6.770;2022-12-11T10:22:51;36.50;;;16.07;;
3293;SDS011;1659;51.470;6.770;2022-12-11T10:25:21;33.43;;;18.37;;
3293;SDS011;1659;51.470;6.770;2022-12-11T10:27:51;49.97;;;18.27;;
3293;SDS011;1659;51.470;6.770;2022-12-11T10:30:22;34.07;;;16.57;;
3293;SDS011;1659;51.470;6.770;2022-12-11T10:32:51;49.20;;;19.23;;
3293;SDS011;1659;51.470;6.770;2022-12-11T10:35:26;33.17;;;16.47;;
3293;SDS011;1659;51.470;6.770;2022-12-11T10:38:00;37.17;;;17.00;;
3293;SDS011;1659;51.470;6.770;2022-12-11T10:40:36;35.07;;;17.43;;
3293;SDS011;1659;51.470;6.770;2022-12-11T10:43:05;37.57;;;16.40;;
3293;SDS011;1659;51.470;6.770;2022-12-11T10:45:33;38.80;;;16.80;;
3293;SDS011;1659;51.470;6.770;2022-12-11T10:48:02;42.83;;;16.23;;
3293;SDS011;1659;51.470;6.770;2022-12-11T10:50:30;40.43;;;17.93;;
3293;SDS011;1659;51.470;6.770;2022-12-11T10:52:57;42.33;;;17.87;;
3293;SDS011;1659;51.470;6.770;2022-12-11T10:55:24;30.00;;;16.57;;
3293;SDS011;1659;51.470;6.770;2022-12-11T10:57:54;37.83;;;18.27;;
3293;SDS011;1659;51.470;6.770;2022-12-11T11:00:31;37.47;;;16.80;;
3293;SDS011;1659;51.470;6.770;2022-12-11T11:03:01;42.70;;;19.00;;
3293;SDS011;1659;51.470;6.770;2022-12-11T11:05:29;36.60;;;18.97;;
3293;SDS011;1659;51.470;6.770;2022-12-11T11:10:51;41.50;;;18.40;;
3293;SDS011;1659;51.470;6.770;2022-12-11T11:13:20;37.37;;;18.43;;
3293;SDS011;1659;51.470;6.770;2022-12-11T11:15:48;35.03;;;17.33;;
3293;SDS011;1659;51.470;6.770;2022-12-11T11:18:24;42.27;;;18.97;;
3293;SDS011;1659;51.470;6.770;2022-12-11T11:20:52;44.83;;;19.83;;
3293;SDS011;1659;51.470;6.770;2022-12-11T11:23:20;42.10;;;18.97;;
3293;SDS011;1659;51.470;6.770;2022-12-11T11:25:48;55.00;;;22.37;;
3293;SDS011;1659;51.470;6.770;2022-12-11T11:28:17;41.07;;;20.20;;
3293;SDS011;1659;51.470;6.770;2022-12-11T11:30:56;58.03;;;23.60;;
3293;SDS011;1659;51.470;6.770;2022-12-11T11:33:25;43.10;;;18.70;;
3293;SDS011;1659;51.470;6.770;2022-12-11T11:35:55;36.60;;;18.00;;
3293;SDS011;1659;51.470;6.770;2022-12-11T11:38:24;45.20;;;19.20;;
3293;SDS011;1659;51.470;6.770;2022-12-11T11:40:53;33.83;;;17.20;;
3293;SDS011;1659;51.470;6.770;2022-12-11T11:43:27;35.90;;;18.60;;
3293;SDS011;1659;51.470;6.770;2022-12-11T11:46:09;37.97;;;16.70;;
3293;SDS011;1659;51.470;6.770;2022-12-11T11:48:39;41.97;;;20.40;;
3293;SDS011;1659;51.470;6.770;2022-12-11T11:51:12;45.73;;;18.60;;
3293;SDS011;1659;51.470;6.770;2022-12-11T11:53:41;41.87;;;19.27;;
3293;SDS011;1659;51.470;6.770;2022-12-11T11:56:15;41.70;;;19.00;;
3293;SDS011;1659;51.470;6.770;2022-12-11T11:58:46;41.10;;;19.67;;
3293;SDS011;1659;51.470;6.770;2022-12-11T12:01:21;50.87;;;21.23;;
3293;SDS011;1659;51.470;6.770;2022-12-11T12:03:48;48.10;;;18.70;;
3293;SDS011;1659;51.470;6.770;2022-12-11T12:06:18;57.37;;;21.30;;
3293;SDS011;1659;51.470;6.770;2022-12-11T12:08:55;34.80;;;18.10;;
3293;SDS011;1659;51.470;6.770;2022-12-11T12:11:31;29.80;;;16.60;;
3293;SDS011;1659;51.470;6.770;2022-12-11T12:14:09;37.90;;;19.37;;
3293;SDS011;1659;51.470;6.770;2022-12-11T12:16:47;38.70;;;17.67;;
3293;SDS011;1659;51.470;6.770;2022-12-11T12:19:26;45.97;;;20.00;;
3293;SDS011;1659;51.470;6.770;2022-12-11T12:22:06;40.40;;;18.90;;
3293;SDS011;1659;51.470;6.770;2022-12-11T12:24:40;48.87;;;20.30;;
3293;SDS011;1659;51.470;6.770;2022-12-11T12:27:16;40.37;;;19.73;;
3293;SDS011;1659;51.470;6.770;2022-12-11T12:29:47;44.40;;;20.87;;
3293;SDS011;1659;51.470;6.770;2022-12-11T12:32:26;40.53;;;19.83;;
3293;SDS011;1659;51.470;6.770;2022-12-11T12:35:05;46.73;;;20.80;;
3293;SDS011;1659;51.470;6.770;2022-12-11T12:37:46;37.83;;;19.37;;
3293;SDS011;1659;51.470;6.770;2022-12-11T12:40:23;49.23;;;19.73;;
3293;SDS011;1659;51.470;6.770;2022-12-11T12:42:57;44.90;;;20.40;;
3293;SDS011;1659;51.470;6.770;2022-12-11T12:45:32;49.27;;;21.87;;
3293;SDS011;1659;51.470;6.770;2022-12-11T12:48:09;45.97;;;21.50;;
3293;SDS011;1659;51.470;6.770;2022-12-11T12:50:37;40.07;;;18.67;;
3293;SDS011;1659;51.470;6.770;2022-12-11T12:53:08;49.83;;;20.93;;
3293;SDS011;1659;51.470;6.770;2022-12-11T12:55:41;47.50;;;19.90;;
3293;SDS011;1659;51.470;6.770;2022-12-11T12:58:22;40.13;;;19.20;;
3293;SDS011;1659;51.470;6.770;2022-12-11T13:00:51;47.80;;;19.37;;
3293;SDS011;1659;51.470;6.770;2022-12-11T13:03:20;43.30;;;19.03;;
3293;SDS011;1659;51.470;6.770;2022-12-11T13:05:54;38.70;;;18.77;;
3293;SDS011;1659;51.470;6.770;2022-12-11T13:08:25;38.60;;;18.80;;
3293;SDS011;1659;51.470;6.770;2022-12-11T13:10:59;44.53;;;19.97;;
3293;SDS011;1659;51.470;6.770;2022-12-11T13:13:32;40.97;;;20.90;;
3293;SDS011;1659;51.470;6.770;2022-12-11T13:16:05;41.57;;;18.97;;
3293;SDS011;1659;51.470;6.770;2022-12-11T13:18:47;41.30;;;19.23;;
3293;SDS011;1659;51.470;6.770;2022-12-11T13:21:30;47.50;;;19.10;;
3293;SDS011;1659;51.470;6.770;2022-12-11T13:24:12;44.40;;;18.53;;
3293;SDS011;1659;51.470;6.770;2022-12-11T13:26:40;35.50;;;16.80;;
3293;SDS011;1659;51.470;6.770;2022-12-11T13:31:57;40.17;;;19.47;;
3293;SDS011;1659;51.470;6.770;2022-12-11T13:34:27;45.73;;;19.83;;
3293;SDS011;1659;51.470;6.770;2022-12-11T13:36:57;41.57;;;19.23;;
3293;SDS011;1659;51.470;6.770;2022-12-11T13:39:25;41.30;;;19.20;;
3293;SDS011;1659;51.470;6.770;2022-12-11T13:41:55;40.13;;;19.90;;
3293;SDS011;1659;51.470;6.770;2022-12-11T13:44:25;38.50;;;18.30;;
3293;SDS011;1659;51.470;6.770;2022-12-11T13:46:53;43.10;;;19.70;;
3293;SDS011;1659;51.470;6.770;2022-12-11T13:49:24;40.53;;;20.73;;
3293;SDS011;1659;51.470;6.770;2022-12-11T13:51:55;46.33;;;21.03;;
3293;SDS011;1659;51.470;6.770;2022-12-11T13:54:22;42.03;;;20.27;;
3293;SDS011;1659;51.470;6.770;2022-12-11T13:56:54;49.57;;;20.40;;
3293;SDS011;1659;51.470;6.770;2022-12-11T13:59:24;48.33;;;20.60;;
3293;SDS011;1659;51.470;6.770;2022-12-11T14:01:53;53.70;;;20.73;;
3293;SDS011;1659;51.470;6.770;2022-12-11T14:04:23;43.00;;;22.37;;
3293;SDS011;1659;51.470;6.770;2022-12-11T14:06:53;46.40;;;21.33;;
3293;SDS011;1659;51.470;6.770;2022-12-11T14:09:21;48.53;;;21.93;;
3293;SDS011;1659;51.470;6.770;2022-12-11T14:11:51;46.37;;;21.50;;
3293;SDS011;1659;51.470;6.770;2022-12-11T14:14:21;47.13;;;21.33;;
3293;SDS011;1659;51.470;6.770;2022-12-11T14:16:52;52.97;;;20.87;;
3293;SDS011;1659;51.470;6.770;2022-12-11T14:19:19;46.63;;;21.43;;
3293;SDS011;1659;51.470;6.770;2022-12-11T14:21:58;48.60;;;21.60;;
3293;SDS011;1659;51.470;6.770;2022-12-11T14:24:30;48.87;;;22.23;;
3293;SDS011;1659;51.470;6.770;2022-12-11T14:26:58;45.77;;;21.27;;
3293;SDS011;1659;51.470;6.770;2022-12-11T14:29:26;48.80;;;23.57;;
3293;SDS011;1659;51.470;6.770;2022-12-11T14:31:58;46.13;;;21.17;;
3293;SDS011;1659;51.470;6.770;2022-12-11T14:34:28;48.03;;;21.53;;
3293;SDS011;1659;51.470;6.770;2022-12-11T14:36:59;44.73;;;20.47;;
3293;SDS011;1659;51.470;6.770;2022-12-11T14:39:30;49.23;;;19.30;;
3293;SDS011;1659;51.470;6.770;2022-12-11T14:42:01;49.37;;;21.27;;
3293;SDS011;1659;51.470;6.770;2022-12-11T14:44:30;49.13;;;20.27;;
3293;SDS011;1659;51.470;6.770;2022-12-11T14:47:02;42.20;;;20.57;;
3293;SDS011;1659;51.470;6.770;2022-12-11T14:49:53;46.60;;;20.37;;
3293;SDS011;1659;51.470;6.770;2022-12-11T14:52:27;42.67;;;17.97;;
3293;SDS011;1659;51.470;6.770;2022-12-11T14:54:59;41.57;;;18.80;;
3293;SDS011;1659;51.470;6.770;2022-12-11T14:57:30;53.30;;;20.50;;
3293;SDS011;1659;51.470;6.770;2022-12-11T14:59:59;41.90;;;18.10;;
3293;SDS011;1659;51.470;6.770;2022-12-11T15:02:28;44.30;;;18.63;;
3293;SDS011;1659;51.470;6.770;2022-12-11T15:05:01;44.60;;;18.40;;
3293;SDS011;1659;51.470;6.770;2022-12-11T15:07:37;36.90;;;16.97;;
3293;SDS011;1659;51.470;6.770;2022-12-11T15:10:05;35.73;;;15.90;;